createdAt,value
2018-09-09T00:01:39.167Z,9.40
2018-09-09T00:04:07.386Z,10.13
2018-09-09T00:06:35.585Z,11.53
2018-09-09T00:09:04.035Z,10.57
2018-09-09T00:11:32.211Z,9.23
2018-09-09T00:14:00.390Z,9.20
2018-09-09T00:16:28.589Z,10.43
2018-09-09T00:18:56.799Z,9.77
2018-09-09T00:21:25.029Z,8.90
2018-09-09T00:23:53.314Z,10.30
2018-09-09T00:26:21.560Z,9.83
2018-09-09T00:28:49.789Z,9.40
2018-09-09T00:31:18.016Z,8.70
2018-09-09T00:33:46.255Z,9.10
2018-09-09T00:36:14.441Z,9.10
2018-09-09T00:38:42.725Z,10.53
2018-09-09T00:41:10.934Z,9.00
2018-09-09T00:43:39.159Z,9.37
2018-09-09T00:46:07.346Z,9.37
2018-09-09T00:48:35.602Z,9.50
2018-09-09T00:51:09.206Z,9.37
2018-09-09T00:53:43.318Z,8.20
2018-09-09T00:56:11.625Z,9.50
2018-09-09T00:58:39.838Z,9.10
2018-09-09T01:01:13.545Z,9.33
2018-09-09T01:03:41.775Z,9.47
2018-09-09T01:06:09.983Z,9.17
2018-09-09T01:08:38.575Z,8.73
2018-09-09T01:11:07.006Z,8.30
2018-09-09T01:13:35.255Z,9.10
2018-09-09T01:16:03.611Z,9.23
2018-09-09T01:18:31.999Z,8.90
2018-09-09T01:21:00.372Z,9.70
2018-09-09T01:23:28.659Z,8.30
2018-09-09T01:25:56.877Z,9.93
2018-09-09T01:28:25.096Z,8.63
2018-09-09T01:30:53.526Z,8.67
2018-09-09T01:33:21.800Z,9.37
2018-09-09T01:35:49.985Z,9.93
2018-09-09T01:38:18.226Z,9.83
2018-09-09T01:40:46.685Z,8.43
2018-09-09T01:43:14.908Z,8.93
2018-09-09T01:45:43.161Z,9.40
2018-09-09T01:48:11.380Z,10.27
2018-09-09T01:50:39.582Z,8.80
2018-09-09T01:53:07.779Z,8.77
2018-09-09T01:55:35.965Z,9.13
2018-09-09T01:58:04.157Z,10.00
2018-09-09T02:00:32.432Z,10.43
2018-09-09T02:03:00.629Z,9.10
2018-09-09T02:05:28.929Z,9.93
2018-09-09T02:07:57.175Z,9.23
2018-09-09T02:10:25.358Z,9.17
2018-09-09T02:12:53.573Z,9.53
2018-09-09T02:15:21.757Z,8.80
2018-09-09T02:17:50.080Z,9.33
2018-09-09T02:20:18.273Z,9.80
2018-09-09T02:22:46.481Z,10.17
2018-09-09T02:25:14.706Z,9.20
2018-09-09T02:27:42.925Z,9.30
2018-09-09T02:30:11.392Z,9.57
2018-09-09T02:32:39.577Z,9.70
2018-09-09T02:35:07.782Z,10.00
2018-09-09T02:37:36.026Z,9.77
2018-09-09T02:40:04.237Z,10.10
2018-09-09T02:42:32.514Z,9.17
2018-09-09T02:45:00.834Z,10.10
2018-09-09T02:47:32.233Z,10.23
2018-09-09T02:50:00.566Z,9.40
2018-09-09T02:52:28.889Z,10.23
2018-09-09T02:54:57.130Z,8.83
2018-09-09T02:57:25.341Z,11.47
2018-09-09T02:59:53.552Z,9.63
2018-09-09T03:02:21.788Z,10.73
2018-09-09T03:04:49.993Z,8.70
2018-09-09T03:07:18.219Z,9.83
2018-09-09T03:09:46.461Z,9.40
2018-09-09T03:12:14.685Z,9.73
2018-09-09T03:14:42.901Z,9.50
2018-09-09T03:17:11.109Z,8.50
2018-09-09T03:19:39.341Z,9.13
2018-09-09T03:22:07.557Z,10.03
2018-09-09T03:24:35.817Z,10.67
2018-09-09T03:27:04.108Z,10.33
2018-09-09T03:29:32.332Z,11.07
2018-09-09T03:32:00.562Z,10.10
2018-09-09T03:34:28.758Z,11.47
2018-09-09T03:36:57.017Z,10.37
2018-09-09T03:39:25.313Z,10.77
2018-09-09T03:41:53.510Z,9.80
2018-09-09T03:44:21.742Z,10.10
2018-09-09T03:46:49.967Z,10.50
2018-09-09T03:49:18.206Z,10.37
2018-09-09T03:51:46.413Z,10.67
2018-09-09T03:54:14.674Z,10.30
2018-09-09T03:56:42.966Z,10.87
2018-09-09T03:59:11.187Z,8.47
2018-09-09T04:01:39.389Z,9.17
2018-09-09T04:04:07.664Z,10.13
2018-09-09T04:06:35.901Z,10.80
2018-09-09T04:09:08.321Z,9.03
2018-09-09T04:11:36.592Z,10.97
2018-09-09T04:14:04.822Z,10.50
2018-09-09T04:16:33.043Z,10.30
2018-09-09T04:19:01.307Z,9.97
2018-09-09T04:21:29.508Z,9.03
2018-09-09T04:23:57.735Z,10.50
2018-09-09T04:26:25.957Z,8.97
2018-09-09T04:28:54.205Z,9.60
2018-09-09T04:31:22.437Z,9.60
2018-09-09T04:33:50.673Z,10.83
2018-09-09T04:36:18.889Z,10.57
2018-09-09T04:38:47.149Z,9.37
2018-09-09T04:41:15.421Z,10.23
2018-09-09T04:43:43.648Z,9.90
2018-09-09T04:46:11.899Z,10.30
2018-09-09T04:48:40.113Z,9.87
2018-09-09T04:51:08.541Z,10.83
2018-09-09T04:53:36.774Z,9.23
2018-09-09T04:56:05.018Z,8.27
2018-09-09T04:58:33.241Z,10.73
2018-09-09T05:01:01.534Z,10.00
2018-09-09T05:03:29.847Z,9.87
2018-09-09T05:05:58.157Z,10.30
2018-09-09T05:08:26.402Z,9.20
2018-09-09T05:10:54.610Z,9.07
2018-09-09T05:13:22.878Z,8.90
2018-09-09T05:15:51.078Z,9.53
2018-09-09T05:18:19.402Z,9.40
2018-09-09T05:23:22.337Z,8.60
2018-09-09T05:25:50.592Z,10.30
2018-09-09T05:28:18.828Z,9.60
2018-09-09T05:30:47.054Z,10.20
2018-09-09T05:33:15.236Z,10.40
2018-09-09T05:35:43.527Z,9.70
2018-09-09T05:38:11.725Z,10.20
2018-09-09T05:40:40.082Z,9.07
2018-09-09T05:43:08.307Z,10.43
2018-09-09T05:45:36.603Z,10.60
2018-09-09T05:48:04.834Z,10.57
2018-09-09T05:50:33.082Z,10.43
2018-09-09T05:53:01.341Z,8.13
2018-09-09T05:55:29.616Z,9.43
2018-09-09T05:57:57.842Z,10.27
2018-09-09T06:00:26.070Z,9.50
2018-09-09T06:02:54.247Z,9.40
2018-09-09T06:05:22.546Z,9.23
2018-09-09T06:07:50.925Z,8.30
2018-09-09T06:10:19.170Z,10.07
2018-09-09T06:12:47.361Z,8.40
2018-09-09T06:15:15.666Z,8.07
2018-09-09T06:17:43.889Z,8.77
2018-09-09T06:20:12.162Z,8.30
2018-09-09T06:22:40.383Z,10.30
2018-09-09T06:25:08.618Z,8.60
2018-09-09T06:27:36.860Z,8.50
2018-09-09T06:30:05.262Z,8.17
2018-09-09T06:32:33.532Z,8.20
2018-09-09T06:35:01.744Z,8.17
2018-09-09T06:37:30.122Z,9.57
2018-09-09T06:39:58.347Z,8.60
2018-09-09T06:42:26.556Z,8.20
2018-09-09T06:44:54.792Z,8.10
2018-09-09T06:47:23.031Z,8.27
2018-09-09T06:49:51.278Z,7.93
2018-09-09T06:52:19.457Z,8.97
2018-09-09T06:54:47.659Z,7.67
2018-09-09T06:57:15.894Z,7.90
2018-09-09T06:59:44.109Z,7.73
2018-09-09T07:02:12.407Z,7.20
2018-09-09T07:04:40.553Z,8.30
2018-09-09T07:07:08.801Z,8.40
2018-09-09T07:09:37.179Z,8.10
2018-09-09T07:12:05.485Z,7.80
2018-09-09T07:14:33.605Z,7.77
2018-09-09T07:17:01.822Z,7.67
2018-09-09T07:19:30.058Z,7.00
2018-09-09T07:21:58.249Z,8.63
2018-09-09T07:24:26.734Z,8.03
2018-09-09T07:26:54.980Z,7.70
2018-09-09T07:29:23.185Z,7.60
2018-09-09T07:31:52.125Z,7.37
2018-09-09T07:34:20.416Z,9.37
2018-09-09T07:36:48.573Z,10.87
2018-09-09T07:39:16.778Z,8.27
2018-09-09T07:41:45.028Z,7.73
2018-09-09T07:44:13.320Z,8.40
2018-09-09T07:46:41.534Z,7.10
2018-09-09T07:49:09.821Z,7.57
2018-09-09T07:51:38.086Z,6.63
2018-09-09T07:54:06.568Z,7.80
2018-09-09T07:56:34.884Z,5.80
2018-09-09T07:59:03.183Z,6.50
2018-09-09T08:01:32.391Z,7.93
2018-09-09T08:04:00.592Z,6.60
2018-09-09T08:06:28.837Z,6.10
2018-09-09T08:08:57.079Z,6.93
2018-09-09T08:11:29.529Z,7.07
2018-09-09T08:13:57.767Z,6.90
2018-09-09T08:16:25.994Z,7.00
2018-09-09T08:18:54.327Z,6.40
2018-09-09T08:21:22.618Z,7.80
2018-09-09T08:23:51.306Z,7.00
2018-09-09T08:26:19.553Z,6.70
2018-09-09T08:28:47.850Z,6.13
2018-09-09T08:31:16.125Z,6.93
2018-09-09T08:33:44.410Z,7.20
2018-09-09T08:36:12.981Z,6.20
2018-09-09T08:38:41.233Z,7.23
2018-09-09T08:41:09.741Z,7.77
2018-09-09T08:43:37.969Z,7.40
2018-09-09T08:46:06.367Z,6.23
2018-09-09T08:48:34.941Z,7.80
2018-09-09T08:51:03.346Z,6.13
2018-09-09T08:53:31.865Z,5.63
2018-09-09T08:56:00.113Z,6.43
2018-09-09T08:58:28.442Z,4.60
2018-09-09T09:00:56.720Z,5.80
2018-09-09T09:03:24.925Z,6.20
2018-09-09T09:05:53.402Z,5.97
2018-09-09T09:08:21.624Z,6.27
2018-09-09T09:10:49.862Z,5.20
2018-09-09T09:13:18.085Z,5.70
2018-09-09T09:15:46.309Z,6.23
2018-09-09T09:18:14.535Z,5.90
2018-09-09T09:20:42.906Z,5.77
2018-09-09T09:23:11.418Z,6.10
2018-09-09T09:25:44.633Z,6.10
2018-09-09T09:28:12.878Z,4.80
2018-09-09T09:30:41.213Z,6.60
2018-09-09T09:33:09.365Z,5.40
2018-09-09T09:35:43.948Z,6.40
2018-09-09T09:38:12.202Z,6.00
2018-09-09T09:40:40.433Z,6.17
2018-09-09T09:43:08.815Z,5.20
2018-09-09T09:45:37.094Z,5.03
2018-09-09T09:48:05.380Z,4.80
2018-09-09T09:50:33.911Z,4.73
2018-09-09T09:53:02.160Z,4.97
2018-09-09T09:55:30.448Z,4.07
2018-09-09T09:57:59.236Z,4.90
2018-09-09T10:00:32.905Z,4.67
2018-09-09T10:03:01.293Z,4.50
2018-09-09T10:05:29.611Z,4.13
2018-09-09T10:07:57.910Z,4.00
2018-09-09T10:10:26.164Z,3.87
2018-09-09T10:12:54.399Z,3.70
2018-09-09T10:15:22.607Z,3.50
2018-09-09T10:17:50.897Z,2.90
2018-09-09T10:20:19.098Z,3.60
2018-09-09T10:22:47.364Z,3.60
2018-09-09T10:25:15.658Z,3.30
2018-09-09T10:27:44.000Z,3.80
2018-09-09T10:30:12.291Z,3.50
2018-09-09T10:32:40.470Z,3.47
2018-09-09T10:35:08.666Z,2.63
2018-09-09T10:37:36.899Z,2.60
2018-09-09T10:40:05.170Z,3.33
2018-09-09T10:42:33.493Z,3.67
2018-09-09T10:45:01.690Z,3.53
2018-09-09T10:47:29.904Z,3.30
2018-09-09T10:49:58.130Z,3.30
2018-09-09T10:52:26.397Z,3.13
2018-09-09T10:54:54.599Z,4.00
2018-09-09T10:57:22.829Z,3.33
2018-09-09T10:59:51.033Z,3.17
2018-09-09T11:02:19.277Z,2.90
2018-09-09T11:04:47.490Z,3.30
2018-09-09T11:07:15.713Z,3.30
2018-09-09T11:09:43.917Z,2.97
2018-09-09T11:12:12.179Z,3.20
2018-09-09T11:14:40.458Z,3.17
2018-09-09T11:17:08.642Z,3.60
2018-09-09T11:19:37.237Z,3.30
2018-09-09T11:22:05.518Z,3.43
2018-09-09T11:24:33.823Z,3.30
2018-09-09T11:27:02.037Z,3.20
2018-09-09T11:29:30.233Z,3.40
2018-09-09T11:31:58.586Z,3.20
2018-09-09T11:34:26.767Z,2.50
2018-09-09T11:36:54.998Z,3.17
2018-09-09T11:39:23.244Z,2.57
2018-09-09T11:41:51.481Z,2.60
2018-09-09T11:44:19.685Z,3.30
2018-09-09T11:46:47.932Z,2.73
2018-09-09T11:49:16.265Z,3.23
2018-09-09T11:51:44.586Z,3.43
2018-09-09T11:54:12.810Z,3.67
2018-09-09T11:56:41.078Z,3.30
2018-09-09T11:59:09.287Z,2.90
2018-09-09T12:01:37.534Z,2.63
2018-09-09T12:04:05.839Z,2.90
2018-09-09T12:06:34.065Z,2.77
2018-09-09T12:09:02.247Z,3.30
2018-09-09T12:11:30.494Z,3.03
2018-09-09T12:13:58.725Z,3.50
2018-09-09T12:16:27.079Z,3.60
2018-09-09T12:18:55.298Z,3.07
2018-09-09T12:21:23.529Z,3.27
2018-09-09T12:23:51.781Z,2.83
2018-09-09T12:26:19.997Z,2.77
2018-09-09T12:28:48.355Z,2.70
2018-09-09T12:31:16.594Z,3.20
2018-09-09T12:33:44.780Z,2.90
2018-09-09T12:36:13.020Z,2.80
2018-09-09T12:38:41.231Z,3.20
2018-09-09T12:41:09.492Z,3.00
2018-09-09T12:43:43.041Z,2.67
2018-09-09T12:46:16.773Z,3.07
2018-09-09T12:48:50.122Z,3.20
2018-09-09T12:51:18.464Z,3.23
2018-09-09T12:53:46.697Z,3.37
2018-09-09T12:56:14.907Z,3.60
2018-09-09T12:58:43.152Z,2.70
2018-09-09T13:01:11.392Z,3.00
2018-09-09T13:03:39.582Z,2.70
2018-09-09T13:06:07.795Z,3.20
2018-09-09T13:08:35.998Z,2.90
2018-09-09T13:11:04.213Z,2.60
2018-09-09T13:13:32.470Z,3.57
2018-09-09T13:16:00.655Z,2.60
2018-09-09T13:18:28.877Z,2.97
2018-09-09T13:20:57.137Z,3.67
2018-09-09T13:23:25.367Z,3.13
2018-09-09T13:25:53.598Z,3.13
2018-09-09T13:28:22.947Z,2.73
2018-09-09T13:30:51.834Z,2.40
2018-09-09T13:33:21.073Z,2.80
2018-09-09T13:35:49.356Z,3.03
2018-09-09T13:38:17.579Z,3.10
2018-09-09T13:40:45.795Z,2.60
2018-09-09T13:43:13.984Z,2.30
2018-09-09T13:45:42.251Z,2.50
2018-09-09T13:48:10.570Z,2.60
2018-09-09T13:50:38.741Z,2.53
2018-09-09T13:53:07.165Z,2.10
2018-09-09T13:55:35.388Z,2.40
2018-09-09T13:58:03.613Z,2.80
2018-09-09T14:00:31.823Z,3.10
2018-09-09T14:03:00.051Z,2.70
2018-09-09T14:05:28.292Z,2.70
2018-09-09T14:07:56.499Z,2.83
2018-09-09T14:10:24.698Z,2.63
2018-09-09T14:12:52.970Z,3.03
2018-09-09T14:15:21.325Z,3.13
2018-09-09T14:17:49.521Z,2.40
2018-09-09T14:20:17.778Z,2.43
2018-09-09T14:22:46.066Z,2.47
2018-09-09T14:25:14.248Z,2.33
2018-09-09T14:27:42.476Z,2.80
2018-09-09T14:30:10.678Z,2.90
2018-09-09T14:32:38.918Z,3.00
2018-09-09T14:35:07.246Z,3.30
2018-09-09T14:37:35.441Z,3.10
2018-09-09T14:40:03.653Z,3.00
2018-09-09T14:42:31.897Z,2.83
2018-09-09T14:45:01.029Z,2.87
2018-09-09T14:47:29.284Z,2.87
2018-09-09T14:49:57.469Z,3.00
2018-09-09T14:52:25.842Z,2.60
2018-09-09T14:54:54.034Z,2.50
2018-09-09T14:57:22.228Z,3.23
2018-09-09T14:59:50.429Z,3.07
2018-09-09T15:02:18.657Z,2.77
2018-09-09T15:04:46.887Z,2.90
2018-09-09T15:07:15.212Z,2.90
2018-09-09T15:09:43.543Z,2.90
2018-09-09T15:12:11.769Z,2.50
2018-09-09T15:14:40.020Z,3.07
2018-09-09T15:17:08.238Z,2.40
2018-09-09T15:19:38.012Z,3.20
2018-09-09T15:22:06.282Z,3.23
2018-09-09T15:24:34.505Z,2.57
2018-09-09T15:27:02.685Z,3.30
2018-09-09T15:29:31.113Z,3.00
2018-09-09T15:31:59.402Z,3.13
2018-09-09T15:34:27.713Z,2.80
2018-09-09T15:36:55.910Z,2.97
2018-09-09T15:39:24.162Z,2.47
2018-09-09T15:41:52.462Z,3.00
2018-09-09T15:44:20.660Z,2.60
2018-09-09T15:46:48.947Z,2.53
2018-09-09T15:49:17.173Z,2.70
2018-09-09T15:51:45.397Z,3.40
2018-09-09T15:54:13.634Z,3.03
2018-09-09T15:56:41.845Z,2.80
2018-09-09T15:59:10.066Z,2.70
2018-09-09T16:01:38.305Z,2.40
2018-09-09T16:04:06.533Z,2.70
2018-09-09T16:06:34.747Z,3.17
2018-09-09T16:09:03.043Z,2.70
2018-09-09T16:11:31.309Z,2.83
2018-09-09T16:13:59.568Z,4.80
2018-09-09T16:16:27.785Z,2.73
2018-09-09T16:18:56.029Z,3.27
2018-09-09T16:21:24.212Z,3.30
2018-09-09T16:23:53.944Z,3.07
2018-09-09T16:26:22.234Z,2.43
2018-09-09T16:28:50.530Z,2.30
2018-09-09T16:31:18.882Z,2.77
2018-09-09T16:33:47.150Z,3.23
2018-09-09T16:36:15.460Z,3.20
2018-09-09T16:38:43.745Z,3.00
2018-09-09T16:41:12.100Z,2.60
2018-09-09T16:43:40.497Z,2.00
2018-09-09T16:46:08.714Z,2.33
2018-09-09T16:48:37.293Z,1.93
2018-09-09T16:51:05.722Z,2.30
2018-09-09T16:53:33.957Z,2.20
2018-09-09T16:56:02.217Z,1.73
2018-09-09T16:58:30.453Z,2.00
2018-09-09T17:00:58.705Z,1.90
2018-09-09T17:03:27.106Z,2.67
2018-09-09T17:05:55.375Z,1.87
2018-09-09T17:08:23.734Z,2.10
2018-09-09T17:10:52.018Z,2.10
2018-09-09T17:13:20.335Z,1.90
2018-09-09T17:15:48.557Z,2.00
2018-09-09T17:18:16.879Z,2.87
2018-09-09T17:20:45.109Z,2.43
2018-09-09T17:23:14.119Z,2.73
2018-09-09T17:25:42.395Z,2.20
2018-09-09T17:28:10.737Z,2.83
2018-09-09T17:30:38.914Z,3.40
2018-09-09T17:33:07.809Z,3.13
2018-09-09T17:35:36.054Z,2.73
2018-09-09T17:38:04.287Z,2.50
2018-09-09T17:40:32.531Z,3.40
2018-09-09T17:43:01.080Z,3.40
2018-09-09T17:45:29.301Z,3.07
2018-09-09T17:47:57.540Z,4.00
2018-09-09T17:50:25.817Z,4.37
2018-09-09T17:52:54.153Z,3.70
2018-09-09T17:55:22.369Z,3.33
2018-09-09T17:57:50.578Z,4.27
2018-09-09T18:00:18.858Z,4.10
2018-09-09T18:02:47.202Z,5.20
2018-09-09T18:05:15.680Z,5.27
2018-09-09T18:07:43.916Z,5.40
2018-09-09T18:10:12.209Z,4.57
2018-09-09T18:12:40.429Z,4.23
2018-09-09T18:15:08.689Z,5.07
2018-09-09T18:17:37.042Z,4.83
2018-09-09T18:20:05.399Z,4.80
2018-09-09T18:22:34.750Z,5.40
2018-09-09T18:25:02.979Z,5.20
2018-09-09T18:27:31.202Z,25.07
2018-09-09T18:29:59.522Z,37.23
2018-09-09T18:32:27.770Z,12.70
2018-09-09T18:34:56.186Z,7.70
2018-09-09T18:37:24.398Z,6.53
2018-09-09T18:39:52.680Z,40.23
2018-09-09T18:42:21.027Z,33.60
2018-09-09T18:44:49.327Z,35.40
2018-09-09T18:47:17.809Z,20.93
2018-09-09T18:49:46.103Z,9.67
2018-09-09T18:52:14.357Z,7.47
2018-09-09T18:54:42.665Z,8.17
2018-09-09T18:57:10.932Z,6.10
2018-09-09T18:59:39.326Z,8.10
2018-09-09T19:02:07.587Z,6.60
2018-09-09T19:04:35.804Z,6.80
2018-09-09T19:07:04.196Z,6.07
2018-09-09T19:09:32.462Z,6.17
2018-09-09T19:12:00.739Z,5.60
2018-09-09T19:14:29.003Z,6.90
2018-09-09T19:16:57.280Z,8.27
2018-09-09T19:19:25.553Z,9.20
2018-09-09T19:21:53.916Z,7.00
2018-09-09T19:24:22.121Z,14.10
2018-09-09T19:26:50.450Z,13.80
2018-09-09T19:29:18.703Z,11.33
2018-09-09T19:31:46.948Z,9.13
2018-09-09T19:34:15.266Z,11.53
2018-09-09T19:36:43.874Z,8.93
2018-09-09T19:39:12.454Z,6.33
2018-09-09T19:41:40.968Z,6.90
2018-09-09T19:44:09.276Z,8.10
2018-09-09T19:46:37.508Z,6.33
2018-09-09T19:49:06.486Z,8.07
2018-09-09T19:51:35.074Z,6.30
2018-09-09T19:54:03.360Z,8.47
2018-09-09T19:56:31.608Z,7.50
2018-09-09T19:58:59.899Z,38.10
2018-09-09T20:01:30.762Z,10.53
2018-09-09T20:03:58.973Z,9.03
2018-09-09T20:06:27.261Z,10.47
2018-09-09T20:08:55.589Z,7.87
2018-09-09T20:11:23.979Z,6.60
2018-09-09T20:13:52.197Z,6.60
2018-09-09T20:16:20.496Z,6.27
2018-09-09T20:18:48.727Z,6.13
2018-09-09T20:21:16.955Z,7.40
2018-09-09T20:23:45.610Z,9.50
2018-09-09T20:26:13.872Z,9.00
2018-09-09T20:28:42.129Z,15.60
2018-09-09T20:31:10.401Z,12.90
2018-09-09T20:33:38.818Z,9.17
2018-09-09T20:36:07.321Z,6.90
2018-09-09T20:38:35.988Z,10.73
2018-09-09T20:41:04.257Z,9.87
2018-09-09T20:43:32.740Z,7.60
2018-09-09T20:46:01.095Z,6.07
2018-09-09T20:48:29.414Z,9.77
2018-09-09T20:50:57.659Z,6.90
2018-09-09T20:53:25.859Z,6.93
2018-09-09T20:55:54.285Z,5.80
2018-09-09T20:58:22.534Z,8.07
2018-09-09T21:00:50.890Z,7.80
2018-09-09T21:03:19.239Z,6.70
2018-09-09T21:05:47.669Z,7.40
2018-09-09T21:08:15.925Z,7.43
2018-09-09T21:10:44.172Z,6.10
2018-09-09T21:13:12.417Z,9.77
2018-09-09T21:15:40.797Z,10.60
2018-09-09T21:18:09.219Z,9.00
2018-09-09T21:20:37.508Z,13.50
2018-09-09T21:23:05.981Z,10.93
2018-09-09T21:25:34.317Z,10.10
2018-09-09T21:28:03.345Z,6.63
2018-09-09T21:30:31.636Z,11.30
2018-09-09T21:32:59.926Z,8.50
2018-09-09T21:35:28.311Z,7.73
2018-09-09T21:37:56.693Z,9.77
2018-09-09T21:40:25.041Z,7.60
2018-09-09T21:42:53.330Z,9.53
2018-09-09T21:45:21.638Z,11.97
2018-09-09T21:47:49.886Z,8.90
2018-09-09T21:50:18.237Z,7.50
2018-09-09T21:52:46.633Z,8.57
2018-09-09T21:55:15.322Z,6.97
2018-09-09T21:57:43.573Z,5.67
2018-09-09T22:00:12.841Z,7.27
2018-09-09T22:02:42.030Z,11.10
2018-09-09T22:05:10.322Z,6.60
2018-09-09T22:07:38.733Z,6.50
2018-09-09T22:10:07.017Z,7.67
2018-09-09T22:12:35.292Z,6.40
2018-09-09T22:15:03.570Z,7.30
2018-09-09T22:17:31.875Z,8.40
2018-09-09T22:20:00.382Z,7.80
2018-09-09T22:22:28.597Z,7.90
2018-09-09T22:24:56.925Z,7.20
2018-09-09T22:27:25.471Z,7.73
2018-09-09T22:29:53.854Z,7.60
2018-09-09T22:32:22.077Z,8.30
2018-09-09T22:34:50.328Z,7.83
2018-09-09T22:37:18.562Z,7.90
2018-09-09T22:39:46.818Z,8.30
2018-09-09T22:42:15.098Z,7.93
2018-09-09T22:44:43.373Z,6.97
2018-09-09T22:47:11.577Z,6.27
2018-09-09T22:49:39.934Z,7.00
2018-09-09T22:52:08.199Z,6.10
2018-09-09T22:54:36.424Z,7.03
2018-09-09T22:57:04.742Z,7.17
2018-09-09T22:59:33.000Z,6.27
2018-09-09T23:02:01.235Z,6.00
2018-09-09T23:04:29.425Z,6.03
2018-09-09T23:06:57.665Z,6.20
2018-09-09T23:09:25.909Z,5.70
2018-09-09T23:11:54.153Z,6.60
2018-09-09T23:14:28.950Z,6.27
2018-09-09T23:16:57.295Z,6.13
2018-09-09T23:19:25.525Z,5.73
2018-09-09T23:21:53.757Z,5.77
2018-09-09T23:24:21.963Z,7.03
2018-09-09T23:26:50.209Z,7.50
2018-09-09T23:29:18.454Z,6.80
2018-09-09T23:31:46.726Z,12.80
2018-09-09T23:34:14.962Z,9.10
2018-09-09T23:36:43.193Z,15.00
2018-09-09T23:39:12.145Z,8.20
2018-09-09T23:41:40.429Z,7.13
2018-09-09T23:44:10.269Z,7.97
2018-09-09T23:46:38.509Z,5.80
2018-09-09T23:49:06.915Z,6.87
2018-09-09T23:51:35.133Z,6.23
2018-09-09T23:54:03.326Z,6.47
2018-09-09T23:56:31.594Z,6.53
2018-09-09T23:58:59.846Z,5.87
